createdAt,value
2023-04-07T00:04:14.769Z,4.33
2023-04-07T00:09:17.272Z,4.10
2023-04-07T00:14:19.619Z,8.63
2023-04-07T00:19:21.993Z,9.27
2023-04-07T00:24:33.814Z,7.70
2023-04-07T00:29:36.844Z,5.53
2023-04-07T00:34:39.200Z,4.73
2023-04-07T00:39:41.524Z,3.60
2023-04-07T00:44:43.964Z,4.57
2023-04-07T00:49:46.477Z,3.10
2023-04-07T00:54:48.761Z,3.27
2023-04-07T00:59:53.243Z,3.23
2023-04-07T01:05:02.921Z,9.70
2023-04-07T01:10:07.245Z,2.77
2023-04-07T01:15:42.790Z,4.93
2023-04-07T01:20:46.717Z,3.03
2023-04-07T01:26:01.528Z,4.93
2023-04-07T01:31:05.490Z,4.03
2023-04-07T01:36:08.786Z,4.57
2023-04-07T01:41:11.695Z,4.27
2023-04-07T01:46:15.222Z,2.27
2023-04-07T01:51:19.246Z,4.93
2023-04-07T01:56:21.682Z,5.50
2023-04-07T02:01:27.455Z,2.47
2023-04-07T02:06:34.016Z,3.33
2023-04-07T02:11:38.004Z,5.27
2023-04-07T02:16:42.251Z,5.60
2023-04-07T02:21:44.877Z,4.73
2023-04-07T02:26:48.201Z,11.00
2023-04-07T02:31:50.969Z,8.63
2023-04-07T02:36:53.459Z,8.70
2023-04-07T02:41:55.932Z,13.80
2023-04-07T02:46:59.118Z,11.00
2023-04-07T02:52:01.530Z,9.90
2023-04-07T02:57:04.243Z,6.00
2023-04-07T03:02:06.897Z,17.63
2023-04-07T03:07:10.340Z,20.17
2023-04-07T03:12:13.672Z,24.20
2023-04-07T03:17:16.464Z,12.43
2023-04-07T03:22:20.047Z,12.03
2023-04-07T03:27:26.675Z,6.23
2023-04-07T03:32:29.571Z,4.50
2023-04-07T03:37:32.539Z,9.27
2023-04-07T03:42:35.285Z,11.20
2023-04-07T03:47:41.682Z,13.80
2023-04-07T03:52:44.583Z,7.97
2023-04-07T03:57:57.329Z,8.40
2023-04-07T04:03:03.747Z,10.53
2023-04-07T04:08:07.768Z,9.37
2023-04-07T04:13:13.801Z,4.93
2023-04-07T04:18:17.812Z,2.93
2023-04-07T04:23:20.951Z,18.00
2023-04-07T04:28:27.329Z,4.83
2023-04-07T04:33:31.986Z,5.43
2023-04-07T04:38:35.534Z,11.07
2023-04-07T04:43:49.146Z,5.20
2023-04-07T04:48:56.865Z,9.60
2023-04-07T04:54:01.030Z,3.17
2023-04-07T04:59:04.967Z,4.40
2023-04-07T05:04:17.267Z,3.23
2023-04-07T05:09:26.675Z,9.17
2023-04-07T05:14:29.230Z,6.73
2023-04-07T05:19:39.732Z,3.87
2023-04-07T05:24:56.833Z,5.33
2023-04-07T05:29:59.534Z,12.37
2023-04-07T05:35:07.176Z,7.67
2023-04-07T05:40:13.058Z,6.83
2023-04-07T05:45:16.318Z,5.07
2023-04-07T05:50:22.639Z,10.20
2023-04-07T05:55:26.203Z,10.37
2023-04-07T06:00:28.819Z,8.20
2023-04-07T06:05:52.803Z,5.50
2023-04-07T06:10:56.898Z,8.30
2023-04-07T06:15:59.332Z,6.90
2023-04-07T06:21:01.858Z,4.90
2023-04-07T06:26:04.344Z,6.53
2023-04-07T06:31:09.160Z,5.40
2023-04-07T06:36:12.957Z,4.50
2023-04-07T06:41:17.513Z,5.27
2023-04-07T06:46:20.810Z,6.80
2023-04-07T06:51:23.255Z,3.43
2023-04-07T06:56:26.527Z,14.57
2023-04-07T07:01:29.135Z,5.93
2023-04-07T07:06:32.160Z,4.00
2023-04-07T07:11:35.136Z,6.17
2023-04-07T07:16:37.701Z,7.73
2023-04-07T07:21:40.059Z,7.40
2023-04-07T07:26:43.634Z,4.40
2023-04-07T07:31:46.971Z,6.47
2023-04-07T07:36:49.522Z,6.53
2023-04-07T07:41:52.266Z,8.63
2023-04-07T07:46:54.717Z,5.80
2023-04-07T07:51:57.857Z,6.70
2023-04-07T07:57:00.390Z,5.40
2023-04-07T08:02:02.877Z,4.77
2023-04-07T08:07:05.401Z,6.83
2023-04-07T08:12:07.970Z,5.33
2023-04-07T08:17:10.784Z,2.43
2023-04-07T08:22:13.260Z,8.47
2023-04-07T08:27:15.760Z,8.73
2023-04-07T08:32:18.087Z,8.47
2023-04-07T08:37:20.409Z,9.10
2023-04-07T08:42:25.907Z,4.60
2023-04-07T08:47:28.916Z,6.63
2023-04-07T08:52:42.522Z,5.10
2023-04-07T08:57:47.807Z,5.17
2023-04-07T09:02:52.310Z,8.70
2023-04-07T09:07:54.810Z,4.77
2023-04-07T09:12:59.388Z,6.67
2023-04-07T09:18:01.954Z,2.47
2023-04-07T09:23:04.413Z,4.33
2023-04-07T09:28:06.836Z,5.10
2023-04-07T09:33:11.054Z,3.97
2023-04-07T09:38:14.400Z,2.20
2023-04-07T09:43:18.997Z,5.77
2023-04-07T09:48:22.233Z,3.67
2023-04-07T09:53:49.578Z,9.50
2023-04-07T09:58:52.300Z,2.87
2023-04-07T10:03:56.698Z,3.00
2023-04-07T10:08:59.299Z,4.20
2023-04-07T10:14:01.836Z,5.40
2023-04-07T10:19:04.945Z,6.70
2023-04-07T10:24:24.871Z,7.53
2023-04-07T10:29:30.374Z,4.87
2023-04-07T10:34:48.951Z,5.37
2023-04-07T10:39:53.425Z,5.50
2023-04-07T10:44:58.243Z,3.73
2023-04-07T10:50:20.411Z,3.70
2023-04-07T10:55:39.856Z,3.87
2023-04-07T11:00:42.878Z,2.38
2023-04-07T11:05:45.436Z,14.67
2023-04-07T11:10:51.075Z,3.97
2023-04-07T11:15:55.447Z,3.37
2023-04-07T11:21:00.498Z,2.20
2023-04-07T11:26:03.715Z,5.33
2023-04-07T11:31:06.659Z,5.30
2023-04-07T11:36:09.312Z,7.63
2023-04-07T11:41:13.790Z,3.40
2023-04-07T11:46:18.153Z,2.60
2023-04-07T11:51:24.274Z,4.77
2023-04-07T11:56:28.377Z,5.30
2023-04-07T12:01:42.275Z,6.00
2023-04-07T12:06:48.834Z,4.50
2023-04-07T12:11:51.412Z,2.90
2023-04-07T12:16:56.731Z,5.63
2023-04-07T12:21:59.085Z,2.93
2023-04-07T12:27:01.386Z,4.67
2023-04-07T12:32:05.882Z,7.07
2023-04-07T12:37:08.467Z,2.00
2023-04-07T12:42:12.280Z,3.37
2023-04-07T12:47:14.911Z,9.37
2023-04-07T12:52:17.537Z,6.30
2023-04-07T12:57:20.130Z,7.00
2023-04-07T13:02:22.782Z,13.10
2023-04-07T13:07:25.311Z,3.17
2023-04-07T13:12:27.790Z,3.63
2023-04-07T13:17:30.180Z,6.07
2023-04-07T13:22:32.672Z,4.43
2023-04-07T13:27:35.088Z,5.73
2023-04-07T13:32:37.502Z,5.00
2023-04-07T13:37:39.893Z,2.83
2023-04-07T13:42:45.177Z,6.50
2023-04-07T13:47:51.922Z,11.13
2023-04-07T13:52:57.595Z,5.50
2023-04-07T13:58:00.109Z,4.37
2023-04-07T14:03:03.152Z,6.17
2023-04-07T14:08:05.726Z,8.83
2023-04-07T14:13:09.209Z,3.17
2023-04-07T14:18:12.047Z,3.27
2023-04-07T14:23:18.533Z,5.70
2023-04-07T14:28:27.697Z,6.77
2023-04-07T14:33:30.229Z,5.13
2023-04-07T14:38:35.216Z,4.97
2023-04-07T14:43:38.952Z,7.93
2023-04-07T14:48:41.623Z,7.67
2023-04-07T14:53:44.174Z,6.80
2023-04-07T14:58:46.604Z,6.20
2023-04-07T15:03:49.539Z,6.03
2023-04-07T15:08:52.270Z,4.93
2023-04-07T15:13:55.237Z,4.63
2023-04-07T15:18:57.725Z,6.87
2023-04-07T15:24:00.068Z,9.73
2023-04-07T15:29:02.648Z,4.30
2023-04-07T15:34:05.783Z,4.10
2023-04-07T15:39:08.226Z,6.07
2023-04-07T15:44:10.626Z,9.20
2023-04-07T15:49:13.095Z,13.83
2023-04-07T15:54:15.764Z,17.67
2023-04-07T15:59:18.243Z,8.07
2023-04-07T16:04:20.898Z,10.40
2023-04-07T16:09:23.271Z,11.67
2023-04-07T16:14:29.498Z,12.17
2023-04-07T16:19:32.104Z,17.40
2023-04-07T16:24:34.517Z,18.23
2023-04-07T16:29:37.331Z,10.67
2023-04-07T16:34:41.645Z,15.03
2023-04-07T16:39:44.003Z,13.30
2023-04-07T16:44:46.448Z,21.30
2023-04-07T16:49:48.882Z,18.90
2023-04-07T16:54:51.717Z,13.00
2023-04-07T16:59:54.114Z,16.77
2023-04-07T17:04:56.580Z,18.00
2023-04-07T17:09:59.110Z,19.53
2023-04-07T17:15:01.603Z,16.03
2023-04-07T17:20:05.353Z,26.87
2023-04-07T17:25:08.210Z,28.03
2023-04-07T17:30:10.949Z,20.67
2023-04-07T17:35:13.404Z,17.30
2023-04-07T17:40:15.777Z,13.73
2023-04-07T17:45:18.234Z,13.67
2023-04-07T17:50:21.224Z,21.37
2023-04-07T17:55:23.776Z,16.50
2023-04-07T18:00:26.629Z,17.33
2023-04-07T18:05:31.311Z,11.27
2023-04-07T18:10:34.008Z,22.10
2023-04-07T18:15:36.872Z,22.87
2023-04-07T18:20:39.405Z,17.37
2023-04-07T18:25:42.088Z,17.13
2023-04-07T18:30:44.799Z,19.03
2023-04-07T18:35:47.353Z,15.43
2023-04-07T18:40:51.140Z,17.27
2023-04-07T18:45:54.677Z,16.27
2023-04-07T18:50:57.439Z,19.50
2023-04-07T18:56:00.047Z,31.50
2023-04-07T19:01:04.989Z,24.73
2023-04-07T19:06:07.815Z,30.73
2023-04-07T19:11:10.773Z,22.53
2023-04-07T19:16:13.784Z,21.83
2023-04-07T19:21:16.846Z,32.27
2023-04-07T19:26:19.299Z,31.60
2023-04-07T19:31:21.805Z,39.73
2023-04-07T19:36:25.452Z,27.00
2023-04-07T19:41:28.228Z,28.23
2023-04-07T19:46:33.621Z,25.67
2023-04-07T19:51:36.140Z,18.13
2023-04-07T19:56:38.883Z,25.07
2023-04-07T20:01:41.586Z,21.33
2023-04-07T20:06:44.140Z,20.97
2023-04-07T20:11:46.953Z,37.87
2023-04-07T20:16:49.623Z,36.27
2023-04-07T20:21:52.120Z,37.20
2023-04-07T20:26:54.624Z,40.57
2023-04-07T20:31:57.145Z,35.57
2023-04-07T20:36:59.554Z,33.50
2023-04-07T20:42:02.164Z,44.77
2023-04-07T20:47:12.851Z,32.27
2023-04-07T20:52:18.264Z,19.73
2023-04-07T20:57:20.823Z,29.73
2023-04-07T21:02:23.388Z,22.77
2023-04-07T21:07:25.917Z,18.13
2023-04-07T21:12:28.438Z,21.47
2023-04-07T21:17:30.961Z,23.20
2023-04-07T21:22:33.308Z,21.67
2023-04-07T21:27:36.569Z,14.43
2023-04-07T21:32:39.129Z,14.87
2023-04-07T21:37:41.561Z,16.80
2023-04-07T21:42:44.010Z,26.93
2023-04-07T21:47:47.106Z,16.63
2023-04-07T21:52:51.129Z,22.93
2023-04-07T21:57:53.985Z,18.27
2023-04-07T22:02:56.645Z,21.57
2023-04-07T22:07:59.225Z,12.07
2023-04-07T22:13:01.630Z,18.23
2023-04-07T22:18:04.317Z,14.77
2023-04-07T22:23:06.917Z,14.70
2023-04-07T22:28:09.373Z,12.47
2023-04-07T22:33:11.768Z,11.20
2023-04-07T22:38:14.170Z,15.27
2023-04-07T22:43:16.650Z,16.83
2023-04-07T22:48:22.142Z,15.17
2023-04-07T22:53:24.564Z,11.87
2023-04-07T22:58:26.872Z,20.07
2023-04-07T23:03:29.503Z,12.17
2023-04-07T23:08:31.922Z,10.77
2023-04-07T23:13:34.413Z,17.17
2023-04-07T23:18:36.748Z,7.53
2023-04-07T23:23:39.421Z,6.43
2023-04-07T23:28:41.774Z,7.13
2023-04-07T23:33:44.332Z,13.77
2023-04-07T23:38:46.654Z,8.13
2023-04-07T23:43:48.996Z,11.00
2023-04-07T23:48:54.457Z,12.93
2023-04-07T23:53:56.841Z,5.70
2023-04-07T23:58:59.241Z,11.80
